createdAt,value
2022-08-21T00:04:57.538Z,25.30
2022-08-21T00:11:00.203Z,25.30
2022-08-21T00:17:02.669Z,25.50
2022-08-21T00:23:05.579Z,25.30
2022-08-21T00:29:08.011Z,25.00
2022-08-21T00:35:14.768Z,25.00
2022-08-21T00:41:37.910Z,24.80
2022-08-21T00:47:39.637Z,24.70
2022-08-21T00:53:51.707Z,24.70
2022-08-21T00:59:59.593Z,25.00
2022-08-21T01:06:01.958Z,24.50
2022-08-21T01:12:04.831Z,24.30
2022-08-21T01:18:12.276Z,24.10
2022-08-21T01:24:15.013Z,24.20
2022-08-21T01:30:21.442Z,24.00
2022-08-21T01:36:24.398Z,23.80
2022-08-21T01:42:27.164Z,23.60
2022-08-21T01:48:29.306Z,23.50
2022-08-21T01:54:31.667Z,23.60
2022-08-21T02:00:34.127Z,23.40
2022-08-21T02:06:37.249Z,23.50
2022-08-21T02:12:39.604Z,23.40
2022-08-21T02:18:41.684Z,23.10
2022-08-21T02:24:50.088Z,23.00
2022-08-21T02:30:57.722Z,22.90
2022-08-21T02:37:00.073Z,22.80
2022-08-21T02:43:04.658Z,22.70
2022-08-21T02:49:06.909Z,22.60
2022-08-21T02:55:09.299Z,22.50
2022-08-21T03:01:12.209Z,22.70
2022-08-21T03:07:16.612Z,22.70
2022-08-21T03:13:20.559Z,22.60
2022-08-21T03:19:22.690Z,22.50
2022-08-21T03:25:39.951Z,22.50
2022-08-21T03:31:43.689Z,22.50
2022-08-21T03:37:46.666Z,22.50
2022-08-21T03:43:49.025Z,22.60
2022-08-21T03:49:51.571Z,22.60
2022-08-21T03:55:54.187Z,22.70
2022-08-21T04:02:03.971Z,22.80
2022-08-21T04:08:07.730Z,23.00
2022-08-21T04:14:10.511Z,23.10
2022-08-21T04:20:13.923Z,23.40
2022-08-21T04:26:16.748Z,23.60
2022-08-21T04:32:26.175Z,23.70
2022-08-21T04:38:36.599Z,24.00
2022-08-21T04:44:40.238Z,24.50
2022-08-21T04:50:53.404Z,24.70
2022-08-21T04:57:00.956Z,25.00
2022-08-21T05:03:06.416Z,25.40
2022-08-21T05:09:10.651Z,25.60
2022-08-21T05:15:13.899Z,26.30
2022-08-21T05:21:16.250Z,29.50
2022-08-21T05:27:18.528Z,31.90
2022-08-21T05:33:22.239Z,33.90
2022-08-21T05:39:24.499Z,34.00
2022-08-21T05:45:42.109Z,34.40
2022-08-21T05:51:45.829Z,34.80
2022-08-21T05:57:48.081Z,34.70
2022-08-21T06:03:53.758Z,34.80
2022-08-21T06:09:59.579Z,35.70
2022-08-21T06:16:10.715Z,36.20
2022-08-21T06:22:12.981Z,37.70
2022-08-21T06:28:15.231Z,38.50
2022-08-21T06:34:18.763Z,39.30
2022-08-21T06:40:20.994Z,38.80
2022-08-21T06:46:25.133Z,39.40
2022-08-21T06:52:27.491Z,40.50
2022-08-21T06:58:30.214Z,41.70
2022-08-21T07:04:32.533Z,40.30
2022-08-21T07:10:34.841Z,39.70
2022-08-21T07:16:37.119Z,39.50
2022-08-21T07:22:40.027Z,40.70
2022-08-21T07:28:42.339Z,42.00
2022-08-21T07:34:44.496Z,41.50
2022-08-21T07:40:47.834Z,41.90
2022-08-21T07:46:50.110Z,41.60
2022-08-21T07:52:52.509Z,42.50
2022-08-21T07:58:54.945Z,41.70
2022-08-21T08:05:05.450Z,42.10
2022-08-21T08:11:08.362Z,42.50
2022-08-21T08:17:10.616Z,41.00
2022-08-21T08:23:16.543Z,40.80
2022-08-21T08:29:18.741Z,41.30
2022-08-21T08:35:23.642Z,42.90
2022-08-21T08:41:30.660Z,43.10
2022-08-21T08:47:36.666Z,43.80
2022-08-21T08:53:57.204Z,42.20
2022-08-21T09:00:05.071Z,43.10
2022-08-21T09:06:21.853Z,41.60
2022-08-21T09:12:44.887Z,40.90
2022-08-21T09:18:47.019Z,41.20
2022-08-21T09:24:56.712Z,38.20
2022-08-21T09:31:03.888Z,39.00
2022-08-21T09:37:16.919Z,39.20
2022-08-21T09:43:21.889Z,37.90
2022-08-21T09:49:36.959Z,40.80
2022-08-21T09:56:06.716Z,40.80
2022-08-21T10:02:32.292Z,40.30
2022-08-21T10:08:35.840Z,40.00
2022-08-21T10:14:53.155Z,40.50
2022-08-21T10:20:58.309Z,37.30
2022-08-21T10:27:20.404Z,39.20
2022-08-21T10:33:40.449Z,40.00
2022-08-21T10:40:36.809Z,40.80
2022-08-21T10:46:51.231Z,39.20
2022-08-21T10:53:03.108Z,39.70
2022-08-21T10:59:42.851Z,39.80
2022-08-21T11:05:59.114Z,40.00
2022-08-21T11:12:47.705Z,40.30
2022-08-21T11:18:59.778Z,39.90
2022-08-21T11:25:08.544Z,39.50
2022-08-21T11:31:17.036Z,38.70
2022-08-21T11:37:30.395Z,37.90
2022-08-21T11:43:46.491Z,38.00
2022-08-21T11:49:48.624Z,38.80
2022-08-21T11:55:59.240Z,37.10
2022-08-21T12:02:02.160Z,36.00
2022-08-21T12:08:16.563Z,34.00
2022-08-21T12:14:19.951Z,33.40
2022-08-21T12:20:22.217Z,33.00
2022-08-21T12:26:29.353Z,32.60
2022-08-21T12:32:47.000Z,32.70
2022-08-21T12:38:53.739Z,33.50
2022-08-21T12:45:04.404Z,34.20
2022-08-21T12:51:13.319Z,33.30
2022-08-21T12:57:24.554Z,34.00
2022-08-21T13:03:27.852Z,32.80
2022-08-21T13:09:32.483Z,32.70
2022-08-21T13:15:37.424Z,32.90
2022-08-21T13:21:44.369Z,32.90
2022-08-21T13:28:12.807Z,33.10
2022-08-21T13:34:16.203Z,33.00
2022-08-21T13:40:24.911Z,32.90
2022-08-21T13:46:31.908Z,32.70
2022-08-21T13:52:34.171Z,32.60
2022-08-21T13:58:47.801Z,32.60
2022-08-21T14:05:00.802Z,32.60
2022-08-21T14:11:06.373Z,32.60
2022-08-21T14:17:23.356Z,32.40
2022-08-21T14:23:28.692Z,32.10
2022-08-21T14:29:43.991Z,30.50
2022-08-21T14:35:46.443Z,29.80
2022-08-21T14:41:49.993Z,29.20
2022-08-21T14:47:52.395Z,28.90
2022-08-21T14:53:54.747Z,28.80
2022-08-21T15:00:01.230Z,28.50
2022-08-21T15:06:05.643Z,28.30
2022-08-21T15:12:08.762Z,28.10
2022-08-21T15:18:11.043Z,28.00
2022-08-21T15:24:16.769Z,27.80
2022-08-21T15:30:18.864Z,27.90
2022-08-21T15:36:21.206Z,27.80
2022-08-21T15:42:28.018Z,27.80
2022-08-21T15:48:30.354Z,27.80
2022-08-21T15:54:32.739Z,27.80
2022-08-21T16:00:37.361Z,27.70
2022-08-21T16:06:54.162Z,27.60
2022-08-21T16:13:03.329Z,27.60
2022-08-21T16:19:07.260Z,27.70
2022-08-21T16:25:09.726Z,27.70
2022-08-21T16:31:12.015Z,27.60
2022-08-21T16:37:24.426Z,27.50
2022-08-21T16:43:29.545Z,27.50
2022-08-21T16:49:32.671Z,27.40
2022-08-21T16:55:36.211Z,27.20
2022-08-21T17:01:38.512Z,27.10
2022-08-21T17:07:41.821Z,26.90
2022-08-21T17:13:44.007Z,26.90
2022-08-21T17:19:46.753Z,26.80
2022-08-21T17:25:52.875Z,26.80
2022-08-21T17:31:55.794Z,26.70
2022-08-21T17:37:58.302Z,26.60
2022-08-21T17:44:07.592Z,26.40
2022-08-21T17:50:12.406Z,26.30
2022-08-21T17:56:17.581Z,26.00
2022-08-21T18:02:20.424Z,26.10
2022-08-21T18:08:23.628Z,26.10
2022-08-21T18:14:29.474Z,26.10
2022-08-21T18:20:31.738Z,26.20
2022-08-21T18:26:38.293Z,26.20
2022-08-21T18:32:40.805Z,26.20
2022-08-21T18:38:43.119Z,26.20
2022-08-21T18:44:48.438Z,26.20
2022-08-21T18:50:50.778Z,26.10
2022-08-21T18:56:55.001Z,25.90
2022-08-21T19:02:57.662Z,25.70
2022-08-21T19:09:02.302Z,25.60
2022-08-21T19:15:07.326Z,25.50
2022-08-21T19:21:09.766Z,25.40
2022-08-21T19:27:12.416Z,25.20
2022-08-21T19:33:23.510Z,25.10
2022-08-21T19:39:50.029Z,24.80
2022-08-21T19:45:57.141Z,24.70
2022-08-21T19:51:59.627Z,24.60
2022-08-21T19:58:03.934Z,24.60
2022-08-21T20:04:06.268Z,24.50
2022-08-21T20:10:13.294Z,24.50
2022-08-21T20:16:17.220Z,24.50
2022-08-21T20:22:19.659Z,24.60
2022-08-21T20:28:22.197Z,24.50
2022-08-21T20:34:28.430Z,24.60
2022-08-21T20:40:32.999Z,24.50
2022-08-21T20:46:35.580Z,24.50
2022-08-21T20:52:39.108Z,24.50
2022-08-21T20:58:57.727Z,24.50
2022-08-21T21:05:06.565Z,24.50
2022-08-21T21:11:17.197Z,24.50
2022-08-21T21:17:44.885Z,24.50
2022-08-21T21:23:50.380Z,24.50
2022-08-21T21:30:00.717Z,24.40
2022-08-21T21:36:30.277Z,24.50
2022-08-21T21:42:43.569Z,24.50
2022-08-21T21:49:11.444Z,24.40
2022-08-21T21:55:24.615Z,24.40
2022-08-21T22:01:38.241Z,24.40
2022-08-21T22:07:50.660Z,24.40
2022-08-21T22:14:09.160Z,24.40
2022-08-21T22:20:27.782Z,24.40
2022-08-21T22:26:38.539Z,24.40
2022-08-21T22:32:49.501Z,24.40
2022-08-21T22:38:52.567Z,24.40
2022-08-21T22:45:00.079Z,24.40
2022-08-21T22:51:10.363Z,24.30
2022-08-21T22:57:23.338Z,24.40
2022-08-21T23:09:56.317Z,24.20
2022-08-21T23:16:19.941Z,24.10
2022-08-21T23:22:40.297Z,24.10
2022-08-21T23:29:07.965Z,24.00
2022-08-21T23:35:45.338Z,24.00
2022-08-21T23:42:00.094Z,23.90
2022-08-21T23:48:46.956Z,23.80
2022-08-21T23:54:49.062Z,23.80
